sensor_id;sensor_type;location;lat;lon;timestamp;temperature;humidity
17671;DHT22;8954;48.694;8.940;2022-12-22T07:23:19;9.40;99.90
17671;DHT22;8954;48.694;8.940;2022-12-22T07:25:44;9.40;99.90
17671;DHT22;8954;48.694;8.940;2022-12-22T07:28:10;9.50;99.90
17671;DHT22;8954;48.694;8.940;2022-12-22T07:30:35;9.60;99.90
17671;DHT22;8954;48.694;8.940;2022-12-22T07:33:02;9.70;99.90
17671;DHT22;8954;48.694;8.940;2022-12-22T07:35:28;9.80;99.90
17671;DHT22;8954;48.694;8.940;2022-12-22T07:37:53;9.80;99.90
17671;DHT22;8954;48.694;8.940;2022-12-22T07:40:19;9.70;99.90
17671;DHT22;8954;48.694;8.940;2022-12-22T07:42:44;9.70;99.90
17671;DHT22;8954;48.694;8.940;2022-12-22T07:45:18;9.70;99.90
17671;DHT22;8954;48.694;8.940;2022-12-22T07:47:45;9.60;99.90
17671;DHT22;8954;48.694;8.940;2022-12-22T07:50:13;9.50;99.90
17671;DHT22;8954;48.694;8.940;2022-12-22T07:53:02;9.30;99.90
17671;DHT22;8954;48.694;8.940;2022-12-22T07:55:31;9.20;99.90
17671;DHT22;8954;48.694;8.940;2022-12-22T07:58:02;9.10;99.90
17671;DHT22;8954;48.694;8.940;2022-12-22T08:00:27;9.00;99.90
17671;DHT22;8954;48.694;8.940;2022-12-22T08:02:55;9.00;99.90
17671;DHT22;8954;48.694;8.940;2022-12-22T08:05:22;9.00;99.90
17671;DHT22;8954;48.694;8.940;2022-12-22T08:07:49;9.00;99.90
17671;DHT22;8954;48.694;8.940;2022-12-22T08:10:17;9.00;99.90
17671;DHT22;8954;48.694;8.940;2022-12-22T08:12:43;8.90;99.90
17671;DHT22;8954;48.694;8.940;2022-12-22T08:15:09;8.90;99.90
17671;DHT22;8954;48.694;8.940;2022-12-22T08:17:36;8.90;99.90
17671;DHT22;8954;48.694;8.940;2022-12-22T08:20:02;9.00;99.90
17671;DHT22;8954;48.694;8.940;2022-12-22T08:22:28;9.00;99.90
17671;DHT22;8954;48.694;8.940;2022-12-22T08:24:54;8.90;99.90
17671;DHT22;8954;48.694;8.940;2022-12-22T08:27:33;9.00;99.90
17671;DHT22;8954;48.694;8.940;2022-12-22T08:30:05;9.00;99.90
17671;DHT22;8954;48.694;8.940;2022-12-22T08:32:33;9.10;99.90
17671;DHT22;8954;48.694;8.940;2022-12-22T08:35:00;9.20;99.90
17671;DHT22;8954;48.694;8.940;2022-12-22T08:37:27;9.50;99.90
17671;DHT22;8954;48.694;8.940;2022-12-22T08:39:57;9.60;99.90
17671;DHT22;8954;48.694;8.940;2022-12-22T08:42:26;9.60;99.90
17671;DHT22;8954;48.694;8.940;2022-12-22T08:44:52;9.90;99.90
17671;DHT22;8954;48.694;8.940;2022-12-22T08:47:19;9.90;99.90
17671;DHT22;8954;48.694;8.940;2022-12-22T08:49:45;10.00;99.90
17671;DHT22;8954;48.694;8.940;2022-12-22T08:52:11;10.00;99.90
17671;DHT22;8954;48.694;8.940;2022-12-22T08:54:39;10.20;99.90
17671;DHT22;8954;48.694;8.940;2022-12-22T08:57:05;10.30;99.90
17671;DHT22;8954;48.694;8.940;2022-12-22T08:59:30;10.30;99.90
17671;DHT22;8954;48.694;8.940;2022-12-22T09:01:56;10.30;99.90
17671;DHT22;8954;48.694;8.940;2022-12-22T09:04:22;10.60;99.90
17671;DHT22;8954;48.694;8.940;2022-12-22T09:06:51;10.90;99.90
17671;DHT22;8954;48.694;8.940;2022-12-22T09:09:17;10.90;99.90
17671;DHT22;8954;48.694;8.940;2022-12-22T09:11:45;10.70;99.90
17671;DHT22;8954;48.694;8.940;2022-12-22T09:14:11;10.50;99.90
17671;DHT22;8954;48.694;8.940;2022-12-22T09:16:38;10.20;99.90
17671;DHT22;8954;48.694;8.940;2022-12-22T09:19:04;10.00;99.90
17671;DHT22;8954;48.694;8.940;2022-12-22T09:21:31;9.80;99.90
17671;DHT22;8954;48.694;8.940;2022-12-22T09:23:57;9.60;99.90
17671;DHT22;8954;48.694;8.940;2022-12-22T09:26:24;9.60;99.90
17671;DHT22;8954;48.694;8.940;2022-12-22T09:28:50;9.60;99.90
17671;DHT22;8954;48.694;8.940;2022-12-22T09:31:20;9.50;99.90
17671;DHT22;8954;48.694;8.940;2022-12-22T09:33:46;9.50;99.90
17671;DHT22;8954;48.694;8.940;2022-12-22T09:36:14;9.50;99.90
17671;DHT22;8954;48.694;8.940;2022-12-22T09:38:40;9.60;99.90
17671;DHT22;8954;48.694;8.940;2022-12-22T09:41:35;9.70;99.90
17671;DHT22;8954;48.694;8.940;2022-12-22T09:44:04;9.90;99.90
17671;DHT22;8954;48.694;8.940;2022-12-22T09:46:34;9.90;99.90
17671;DHT22;8954;48.694;8.940;2022-12-22T09:49:00;9.80;99.90
17671;DHT22;8954;48.694;8.940;2022-12-22T09:51:27;9.80;99.90
17671;DHT22;8954;48.694;8.940;2022-12-22T09:53:56;9.80;99.90
17671;DHT22;8954;48.694;8.940;2022-12-22T09:56:24;9.80;99.90
17671;DHT22;8954;48.694;8.940;2022-12-22T09:58:50;9.90;99.90
17671;DHT22;8954;48.694;8.940;2022-12-22T10:04:52;9.80;99.90
17671;DHT22;8954;48.694;8.940;2022-12-22T10:07:36;10.00;99.90
17671;DHT22;8954;48.694;8.940;2022-12-22T10:10:25;10.00;99.90
17671;DHT22;8954;48.694;8.940;2022-12-22T10:12:58;10.00;99.90
17671;DHT22;8954;48.694;8.940;2022-12-22T10:15:33;10.10;99.90
17671;DHT22;8954;48.694;8.940;2022-12-22T10:18:21;10.20;99.90
17671;DHT22;8954;48.694;8.940;2022-12-22T10:21:11;10.10;99.90
17671;DHT22;8954;48.694;8.940;2022-12-22T10:23:44;10.20;99.90
17671;DHT22;8954;48.694;8.940;2022-12-22T10:26:17;10.10;99.90
17671;DHT22;8954;48.694;8.940;2022-12-22T10:29:08;10.10;99.90
17671;DHT22;8954;48.694;8.940;2022-12-22T10:31:36;10.10;99.90
17671;DHT22;8954;48.694;8.940;2022-12-22T10:34:15;10.00;99.90
17671;DHT22;8954;48.694;8.940;2022-12-22T10:36:49;10.20;99.90
17671;DHT22;8954;48.694;8.940;2022-12-22T10:39:22;10.40;99.90
17671;DHT22;8954;48.694;8.940;2022-12-22T10:41:50;10.30;99.90
17671;DHT22;8954;48.694;8.940;2022-12-22T10:44:23;10.30;99.90
17671;DHT22;8954;48.694;8.940;2022-12-22T10:46:56;10.40;99.90
17671;DHT22;8954;48.694;8.940;2022-12-22T10:49:29;10.30;99.90
17671;DHT22;8954;48.694;8.940;2022-12-22T10:52:27;10.30;99.90
17671;DHT22;8954;48.694;8.940;2022-12-22T10:55:26;10.40;99.90
17671;DHT22;8954;48.694;8.940;2022-12-22T11:00:35;10.60;99.90
17671;DHT22;8954;48.694;8.940;2022-12-22T11:03:02;10.70;99.90
17671;DHT22;8954;48.694;8.940;2022-12-22T11:05:28;10.90;99.90
17671;DHT22;8954;48.694;8.940;2022-12-22T11:07:55;11.30;99.90
17671;DHT22;8954;48.694;8.940;2022-12-22T11:10:52;11.40;99.90
17671;DHT22;8954;48.694;8.940;2022-12-22T11:16:31;11.40;99.90
17671;DHT22;8954;48.694;8.940;2022-12-22T11:19:29;11.60;99.90
17671;DHT22;8954;48.694;8.940;2022-12-22T11:21:59;11.50;99.90
17671;DHT22;8954;48.694;8.940;2022-12-22T11:24:35;11.50;99.90
17671;DHT22;8954;48.694;8.940;2022-12-22T11:46:20;12.50;99.90
17671;DHT22;8954;48.694;8.940;2022-12-22T11:49:22;12.50;99.90
17671;DHT22;8954;48.694;8.940;2022-12-22T11:54:58;13.70;99.90
17671;DHT22;8954;48.694;8.940;2022-12-22T11:57:42;15.50;99.90
17671;DHT22;8954;48.694;8.940;2022-12-22T12:00:14;15.40;99.90
17671;DHT22;8954;48.694;8.940;2022-12-22T12:05:55;15.00;99.90
17671;DHT22;8954;48.694;8.940;2022-12-22T12:14:06;18.40;99.90
17671;DHT22;8954;48.694;8.940;2022-12-22T12:16:48;19.40;99.90
17671;DHT22;8954;48.694;8.940;2022-12-22T12:21:50;20.30;99.90
17671;DHT22;8954;48.694;8.940;2022-12-22T12:24:54;20.50;99.90
17671;DHT22;8954;48.694;8.940;2022-12-22T12:27:48;20.40;99.90
17671;DHT22;8954;48.694;8.940;2022-12-22T12:30:19;20.30;99.90
17671;DHT22;8954;48.694;8.940;2022-12-22T12:35:21;19.70;99.90
17671;DHT22;8954;48.694;8.940;2022-12-22T12:37:57;18.30;99.90
17671;DHT22;8954;48.694;8.940;2022-12-22T12:40:33;17.50;99.90
17671;DHT22;8954;48.694;8.940;2022-12-22T12:43:04;16.50;99.90
17671;DHT22;8954;48.694;8.940;2022-12-22T12:45:36;16.90;99.90
17671;DHT22;8954;48.694;8.940;2022-12-22T12:53:16;20.50;99.90
17671;DHT22;8954;48.694;8.940;2022-12-22T13:01:04;19.50;99.90
17671;DHT22;8954;48.694;8.940;2022-12-22T13:08:27;20.70;97.70
17671;DHT22;8954;48.694;8.940;2022-12-22T13:18:41;18.80;99.40
17671;DHT22;8954;48.694;8.940;2022-12-22T13:21:18;19.30;99.00
17671;DHT22;8954;48.694;8.940;2022-12-22T13:24:03;19.50;98.90
17671;DHT22;8954;48.694;8.940;2022-12-22T13:26:37;19.90;97.80
17671;DHT22;8954;48.694;8.940;2022-12-22T13:29:17;19.00;98.90
17671;DHT22;8954;48.694;8.940;2022-12-22T13:36:57;14.70;99.90
17671;DHT22;8954;48.694;8.940;2022-12-22T13:39:25;13.80;99.90
17671;DHT22;8954;48.694;8.940;2022-12-22T13:41:51;13.40;99.90
17671;DHT22;8954;48.694;8.940;2022-12-22T13:44:22;13.00;99.90
17671;DHT22;8954;48.694;8.940;2022-12-22T13:46:49;12.70;99.90
17671;DHT22;8954;48.694;8.940;2022-12-22T13:49:17;12.50;99.90
17671;DHT22;8954;48.694;8.940;2022-12-22T13:51:45;12.20;99.90
17671;DHT22;8954;48.694;8.940;2022-12-22T13:54:34;11.90;99.90
17671;DHT22;8954;48.694;8.940;2022-12-22T13:57:02;11.80;99.90
17671;DHT22;8954;48.694;8.940;2022-12-22T13:59:34;11.90;99.90
17671;DHT22;8954;48.694;8.940;2022-12-22T14:04:37;11.60;99.90
17671;DHT22;8954;48.694;8.940;2022-12-22T14:07:14;11.60;99.90
17671;DHT22;8954;48.694;8.940;2022-12-22T14:09:46;11.40;99.90
17671;DHT22;8954;48.694;8.940;2022-12-22T14:12:15;11.20;99.90
17671;DHT22;8954;48.694;8.940;2022-12-22T14:14:44;11.30;99.90
17671;DHT22;8954;48.694;8.940;2022-12-22T14:19:58;11.10;99.90
17671;DHT22;8954;48.694;8.940;2022-12-22T14:22:27;11.00;99.90
17671;DHT22;8954;48.694;8.940;2022-12-22T14:25:00;11.20;99.90
